sensor_id;sensor_type;location;lat;lon;timestamp;P1;durP1;ratioP1;P2;durP2;ratioP2
10244;SDS011;5167;52.164;10.530;2023-08-06T00:00:38;4.25;;;3.15;;
10244;SDS011;5167;52.164;10.530;2023-08-06T00:03:04;5.47;;;3.63;;
10244;SDS011;5167;52.164;10.530;2023-08-06T00:05:29;4.03;;;3.35;;
10244;SDS011;5167;52.164;10.530;2023-08-06T00:07:55;5.35;;;3.55;;
10244;SDS011;5167;52.164;10.530;2023-08-06T00:10:20;4.32;;;3.40;;
10244;SDS011;5167;52.164;10.530;2023-08-06T00:12:46;5.40;;;3.65;;
10244;SDS011;5167;52.164;10.530;2023-08-06T00:15:12;4.85;;;3.60;;
10244;SDS011;5167;52.164;10.530;2023-08-06T00:17:37;4.82;;;3.65;;
10244;SDS011;5167;52.164;10.530;2023-08-06T00:20:03;4.47;;;3.72;;
10244;SDS011;5167;52.164;10.530;2023-08-06T00:22:31;4.40;;;3.08;;
10244;SDS011;5167;52.164;10.530;2023-08-06T00:24:58;6.18;;;3.95;;
10244;SDS011;5167;52.164;10.530;2023-08-06T00:27:23;4.78;;;3.83;;
10244;SDS011;5167;52.164;10.530;2023-08-06T00:29:49;4.88;;;3.92;;
10244;SDS011;5167;52.164;10.530;2023-08-06T00:32:14;4.38;;;3.47;;
10244;SDS011;5167;52.164;10.530;2023-08-06T00:34:40;5.50;;;4.10;;
10244;SDS011;5167;52.164;10.530;2023-08-06T00:37:06;5.50;;;3.72;;
10244;SDS011;5167;52.164;10.530;2023-08-06T00:39:31;7.32;;;4.55;;
10244;SDS011;5167;52.164;10.530;2023-08-06T00:41:57;4.43;;;3.70;;
10244;SDS011;5167;52.164;10.530;2023-08-06T00:44:23;4.43;;;4.03;;
10244;SDS011;5167;52.164;10.530;2023-08-06T00:46:48;4.80;;;3.53;;
10244;SDS011;5167;52.164;10.530;2023-08-06T00:49:14;7.32;;;3.88;;
10244;SDS011;5167;52.164;10.530;2023-08-06T00:51:40;6.25;;;3.97;;
10244;SDS011;5167;52.164;10.530;2023-08-06T00:54:06;5.50;;;4.10;;
10244;SDS011;5167;52.164;10.530;2023-08-06T00:56:32;4.90;;;3.38;;
10244;SDS011;5167;52.164;10.530;2023-08-06T00:59:00;5.55;;;3.72;;
10244;SDS011;5167;52.164;10.530;2023-08-06T01:01:26;6.82;;;4.38;;
10244;SDS011;5167;52.164;10.530;2023-08-06T01:03:52;6.32;;;3.95;;
10244;SDS011;5167;52.164;10.530;2023-08-06T01:06:19;5.07;;;3.80;;
10244;SDS011;5167;52.164;10.530;2023-08-06T01:09:01;4.75;;;3.95;;
10244;SDS011;5167;52.164;10.530;2023-08-06T01:11:54;5.72;;;3.85;;
10244;SDS011;5167;52.164;10.530;2023-08-06T01:17:32;4.95;;;3.53;;
10244;SDS011;5167;52.164;10.530;2023-08-06T01:20:00;4.57;;;3.80;;
10244;SDS011;5167;52.164;10.530;2023-08-06T01:22:25;5.57;;;3.90;;
10244;SDS011;5167;52.164;10.530;2023-08-06T01:24:52;6.10;;;3.60;;
10244;SDS011;5167;52.164;10.530;2023-08-06T01:27:28;5.00;;;4.07;;
10244;SDS011;5167;52.164;10.530;2023-08-06T01:32:38;6.93;;;4.05;;
10244;SDS011;5167;52.164;10.530;2023-08-06T01:35:08;5.53;;;4.22;;
10244;SDS011;5167;52.164;10.530;2023-08-06T01:37:36;5.63;;;4.32;;
10244;SDS011;5167;52.164;10.530;2023-08-06T01:40:10;6.53;;;5.10;;
10244;SDS011;5167;52.164;10.530;2023-08-06T01:42:36;7.47;;;4.45;;
10244;SDS011;5167;52.164;10.530;2023-08-06T01:45:02;9.70;;;5.25;;
10244;SDS011;5167;52.164;10.530;2023-08-06T01:47:28;7.35;;;4.97;;
10244;SDS011;5167;52.164;10.530;2023-08-06T01:49:54;7.15;;;5.05;;
10244;SDS011;5167;52.164;10.530;2023-08-06T01:52:19;6.57;;;4.90;;
10244;SDS011;5167;52.164;10.530;2023-08-06T01:54:45;6.70;;;5.13;;
10244;SDS011;5167;52.164;10.530;2023-08-06T01:57:10;8.43;;;5.47;;
10244;SDS011;5167;52.164;10.530;2023-08-06T01:59:36;6.90;;;5.15;;
10244;SDS011;5167;52.164;10.530;2023-08-06T02:02:01;7.70;;;5.32;;
10244;SDS011;5167;52.164;10.530;2023-08-06T02:04:27;7.55;;;5.70;;
10244;SDS011;5167;52.164;10.530;2023-08-06T02:06:53;8.43;;;5.13;;
10244;SDS011;5167;52.164;10.530;2023-08-06T02:09:18;7.72;;;5.57;;
10244;SDS011;5167;52.164;10.530;2023-08-06T02:11:44;11.10;;;5.78;;
10244;SDS011;5167;52.164;10.530;2023-08-06T02:14:10;7.75;;;5.57;;
10244;SDS011;5167;52.164;10.530;2023-08-06T02:16:35;6.78;;;5.07;;
10244;SDS011;5167;52.164;10.530;2023-08-06T02:19:01;7.95;;;5.43;;
10244;SDS011;5167;52.164;10.530;2023-08-06T02:21:26;10.63;;;5.90;;
10244;SDS011;5167;52.164;10.530;2023-08-06T02:23:52;7.03;;;5.63;;
10244;SDS011;5167;52.164;10.530;2023-08-06T02:26:17;8.48;;;5.70;;
10244;SDS011;5167;52.164;10.530;2023-08-06T02:28:43;8.27;;;5.75;;
10244;SDS011;5167;52.164;10.530;2023-08-06T02:31:08;9.05;;;6.30;;
10244;SDS011;5167;52.164;10.530;2023-08-06T02:33:34;10.93;;;5.80;;
10244;SDS011;5167;52.164;10.530;2023-08-06T02:36:00;8.73;;;5.68;;
10244;SDS011;5167;52.164;10.530;2023-08-06T02:38:26;10.50;;;5.70;;
10244;SDS011;5167;52.164;10.530;2023-08-06T02:40:52;8.65;;;5.95;;
10244;SDS011;5167;52.164;10.530;2023-08-06T02:43:17;11.98;;;6.35;;
10244;SDS011;5167;52.164;10.530;2023-08-06T02:45:43;11.38;;;5.63;;
10244;SDS011;5167;52.164;10.530;2023-08-06T02:48:08;11.23;;;5.57;;
10244;SDS011;5167;52.164;10.530;2023-08-06T02:50:37;9.02;;;5.40;;
10244;SDS011;5167;52.164;10.530;2023-08-06T02:53:07;7.38;;;5.63;;
10244;SDS011;5167;52.164;10.530;2023-08-06T02:55:33;8.20;;;5.50;;
10244;SDS011;5167;52.164;10.530;2023-08-06T02:58:00;8.98;;;5.47;;
10244;SDS011;5167;52.164;10.530;2023-08-06T03:00:26;8.23;;;4.93;;
10244;SDS011;5167;52.164;10.530;2023-08-06T03:02:52;9.68;;;5.40;;
10244;SDS011;5167;52.164;10.530;2023-08-06T03:05:18;8.50;;;5.70;;
10244;SDS011;5167;52.164;10.530;2023-08-06T03:07:44;8.23;;;5.32;;
10244;SDS011;5167;52.164;10.530;2023-08-06T03:10:09;7.25;;;5.28;;
10244;SDS011;5167;52.164;10.530;2023-08-06T03:12:35;15.95;;;5.75;;
10244;SDS011;5167;52.164;10.530;2023-08-06T03:15:00;7.85;;;4.75;;
10244;SDS011;5167;52.164;10.530;2023-08-06T03:17:26;7.00;;;4.65;;
10244;SDS011;5167;52.164;10.530;2023-08-06T03:19:51;9.02;;;5.55;;
10244;SDS011;5167;52.164;10.530;2023-08-06T03:22:17;7.07;;;5.00;;
10244;SDS011;5167;52.164;10.530;2023-08-06T03:24:42;9.40;;;5.40;;
10244;SDS011;5167;52.164;10.530;2023-08-06T03:27:08;8.18;;;5.47;;
10244;SDS011;5167;52.164;10.530;2023-08-06T03:29:33;7.03;;;5.03;;
10244;SDS011;5167;52.164;10.530;2023-08-06T03:31:59;6.55;;;5.20;;
10244;SDS011;5167;52.164;10.530;2023-08-06T03:34:24;9.35;;;5.22;;
10244;SDS011;5167;52.164;10.530;2023-08-06T03:36:50;6.70;;;4.80;;
10244;SDS011;5167;52.164;10.530;2023-08-06T03:39:15;8.18;;;5.28;;
10244;SDS011;5167;52.164;10.530;2023-08-06T03:41:41;7.60;;;4.50;;
10244;SDS011;5167;52.164;10.530;2023-08-06T03:44:06;7.88;;;5.10;;
10244;SDS011;5167;52.164;10.530;2023-08-06T03:46:32;9.25;;;5.50;;
10244;SDS011;5167;52.164;10.530;2023-08-06T03:48:59;7.72;;;5.32;;
10244;SDS011;5167;52.164;10.530;2023-08-06T03:51:24;14.73;;;6.15;;
10244;SDS011;5167;52.164;10.530;2023-08-06T03:53:50;10.07;;;6.63;;
10244;SDS011;5167;52.164;10.530;2023-08-06T03:56:15;7.93;;;6.00;;
10244;SDS011;5167;52.164;10.530;2023-08-06T03:58:41;11.32;;;6.78;;
10244;SDS011;5167;52.164;10.530;2023-08-06T04:01:07;10.68;;;6.45;;
10244;SDS011;5167;52.164;10.530;2023-08-06T04:03:32;9.98;;;6.15;;
10244;SDS011;5167;52.164;10.530;2023-08-06T04:05:58;9.32;;;5.88;;
10244;SDS011;5167;52.164;10.530;2023-08-06T04:08:23;9.10;;;6.47;;
10244;SDS011;5167;52.164;10.530;2023-08-06T04:10:49;10.77;;;6.53;;
10244;SDS011;5167;52.164;10.530;2023-08-06T04:13:17;9.00;;;5.82;;
10244;SDS011;5167;52.164;10.530;2023-08-06T04:15:42;9.63;;;5.93;;
10244;SDS011;5167;52.164;10.530;2023-08-06T04:18:08;10.35;;;6.00;;
10244;SDS011;5167;52.164;10.530;2023-08-06T04:20:33;9.20;;;6.03;;
10244;SDS011;5167;52.164;10.530;2023-08-06T04:22:59;10.45;;;6.10;;
10244;SDS011;5167;52.164;10.530;2023-08-06T04:25:30;9.88;;;5.82;;
10244;SDS011;5167;52.164;10.530;2023-08-06T04:27:56;9.65;;;6.53;;
10244;SDS011;5167;52.164;10.530;2023-08-06T04:30:21;11.30;;;5.90;;
10244;SDS011;5167;52.164;10.530;2023-08-06T04:32:47;10.98;;;5.88;;
10244;SDS011;5167;52.164;10.530;2023-08-06T04:35:14;12.57;;;6.25;;
10244;SDS011;5167;52.164;10.530;2023-08-06T04:37:40;13.93;;;6.82;;
10244;SDS011;5167;52.164;10.530;2023-08-06T04:40:05;7.32;;;5.80;;
10244;SDS011;5167;52.164;10.530;2023-08-06T04:42:31;11.02;;;6.53;;
10244;SDS011;5167;52.164;10.530;2023-08-06T04:44:57;9.13;;;6.72;;
10244;SDS011;5167;52.164;10.530;2023-08-06T04:47:22;10.32;;;6.88;;
10244;SDS011;5167;52.164;10.530;2023-08-06T04:49:48;12.98;;;7.25;;
10244;SDS011;5167;52.164;10.530;2023-08-06T04:52:13;10.50;;;6.75;;
10244;SDS011;5167;52.164;10.530;2023-08-06T04:54:39;10.32;;;6.47;;
10244;SDS011;5167;52.164;10.530;2023-08-06T04:57:11;9.32;;;5.88;;
10244;SDS011;5167;52.164;10.530;2023-08-06T04:59:36;8.65;;;5.93;;
10244;SDS011;5167;52.164;10.530;2023-08-06T05:02:02;14.27;;;6.65;;
10244;SDS011;5167;52.164;10.530;2023-08-06T05:04:27;13.05;;;6.72;;
10244;SDS011;5167;52.164;10.530;2023-08-06T05:06:53;7.72;;;5.20;;
10244;SDS011;5167;52.164;10.530;2023-08-06T05:09:19;4.53;;;3.65;;
10244;SDS011;5167;52.164;10.530;2023-08-06T05:11:45;5.28;;;3.70;;
10244;SDS011;5167;52.164;10.530;2023-08-06T05:14:11;7.60;;;4.38;;
10244;SDS011;5167;52.164;10.530;2023-08-06T05:16:37;8.60;;;4.30;;
10244;SDS011;5167;52.164;10.530;2023-08-06T05:19:02;11.13;;;4.07;;
10244;SDS011;5167;52.164;10.530;2023-08-06T05:21:28;4.95;;;3.85;;
10244;SDS011;5167;52.164;10.530;2023-08-06T05:23:53;6.28;;;3.50;;
10244;SDS011;5167;52.164;10.530;2023-08-06T05:26:19;6.03;;;4.00;;
10244;SDS011;5167;52.164;10.530;2023-08-06T05:28:45;9.35;;;4.10;;
10244;SDS011;5167;52.164;10.530;2023-08-06T05:31:11;8.23;;;4.20;;
10244;SDS011;5167;52.164;10.530;2023-08-06T05:33:36;5.30;;;4.05;;
10244;SDS011;5167;52.164;10.530;2023-08-06T05:36:02;5.32;;;3.60;;
10244;SDS011;5167;52.164;10.530;2023-08-06T05:38:29;5.25;;;3.95;;
10244;SDS011;5167;52.164;10.530;2023-08-06T05:40:55;6.72;;;4.32;;
10244;SDS011;5167;52.164;10.530;2023-08-06T05:43:21;5.20;;;3.80;;
10244;SDS011;5167;52.164;10.530;2023-08-06T05:45:48;7.97;;;4.55;;
10244;SDS011;5167;52.164;10.530;2023-08-06T05:48:14;6.65;;;4.53;;
10244;SDS011;5167;52.164;10.530;2023-08-06T05:50:40;6.32;;;4.70;;
10244;SDS011;5167;52.164;10.530;2023-08-06T05:53:05;5.90;;;4.13;;
10244;SDS011;5167;52.164;10.530;2023-08-06T05:55:31;6.70;;;4.50;;
10244;SDS011;5167;52.164;10.530;2023-08-06T05:57:57;5.70;;;4.28;;
10244;SDS011;5167;52.164;10.530;2023-08-06T06:00:23;9.07;;;5.05;;
10244;SDS011;5167;52.164;10.530;2023-08-06T06:02:49;7.63;;;5.07;;
10244;SDS011;5167;52.164;10.530;2023-08-06T06:05:14;5.50;;;4.22;;
10244;SDS011;5167;52.164;10.530;2023-08-06T06:07:40;6.25;;;4.07;;
10244;SDS011;5167;52.164;10.530;2023-08-06T06:10:06;9.15;;;4.47;;
10244;SDS011;5167;52.164;10.530;2023-08-06T06:12:32;5.55;;;4.03;;
10244;SDS011;5167;52.164;10.530;2023-08-06T06:14:57;7.13;;;3.85;;
10244;SDS011;5167;52.164;10.530;2023-08-06T06:17:23;7.30;;;3.88;;
10244;SDS011;5167;52.164;10.530;2023-08-06T06:19:48;5.53;;;4.00;;
10244;SDS011;5167;52.164;10.530;2023-08-06T06:22:14;5.13;;;4.20;;
10244;SDS011;5167;52.164;10.530;2023-08-06T06:24:39;4.63;;;4.07;;
10244;SDS011;5167;52.164;10.530;2023-08-06T06:27:05;4.85;;;3.40;;
10244;SDS011;5167;52.164;10.530;2023-08-06T06:29:30;4.95;;;3.65;;
10244;SDS011;5167;52.164;10.530;2023-08-06T06:31:56;4.57;;;3.55;;
10244;SDS011;5167;52.164;10.530;2023-08-06T06:34:21;3.88;;;3.17;;
10244;SDS011;5167;52.164;10.530;2023-08-06T06:36:47;4.35;;;2.88;;
10244;SDS011;5167;52.164;10.530;2023-08-06T06:39:13;7.07;;;2.55;;
10244;SDS011;5167;52.164;10.530;2023-08-06T06:41:38;3.90;;;2.80;;
10244;SDS011;5167;52.164;10.530;2023-08-06T06:44:05;3.35;;;2.70;;
10244;SDS011;5167;52.164;10.530;2023-08-06T06:46:30;4.03;;;2.67;;
10244;SDS011;5167;52.164;10.530;2023-08-06T06:48:56;3.17;;;2.70;;
10244;SDS011;5167;52.164;10.530;2023-08-06T06:51:22;2.67;;;2.47;;
10244;SDS011;5167;52.164;10.530;2023-08-06T06:53:47;2.70;;;2.45;;
10244;SDS011;5167;52.164;10.530;2023-08-06T06:56:13;3.53;;;2.38;;
10244;SDS011;5167;52.164;10.530;2023-08-06T06:58:39;2.75;;;2.40;;
10244;SDS011;5167;52.164;10.530;2023-08-06T07:01:05;4.80;;;2.60;;
10244;SDS011;5167;52.164;10.530;2023-08-06T07:03:31;3.15;;;2.53;;
10244;SDS011;5167;52.164;10.530;2023-08-06T07:05:57;5.25;;;2.85;;
10244;SDS011;5167;52.164;10.530;2023-08-06T07:08:26;4.07;;;2.38;;
10244;SDS011;5167;52.164;10.530;2023-08-06T07:10:58;2.38;;;2.17;;
10244;SDS011;5167;52.164;10.530;2023-08-06T07:13:28;2.63;;;2.42;;
10244;SDS011;5167;52.164;10.530;2023-08-06T07:15:54;2.35;;;2.15;;
10244;SDS011;5167;52.164;10.530;2023-08-06T07:18:20;1.88;;;1.67;;
10244;SDS011;5167;52.164;10.530;2023-08-06T07:20:50;1.95;;;1.75;;
10244;SDS011;5167;52.164;10.530;2023-08-06T07:23:16;3.28;;;1.80;;
10244;SDS011;5167;52.164;10.530;2023-08-06T07:25:43;1.88;;;1.77;;
10244;SDS011;5167;52.164;10.530;2023-08-06T07:28:09;2.13;;;1.92;;
10244;SDS011;5167;52.164;10.530;2023-08-06T07:30:38;3.42;;;2.10;;
10244;SDS011;5167;52.164;10.530;2023-08-06T07:33:04;2.33;;;2.05;;
10244;SDS011;5167;52.164;10.530;2023-08-06T07:35:29;3.88;;;2.05;;
10244;SDS011;5167;52.164;10.530;2023-08-06T07:37:55;1.77;;;1.63;;
10244;SDS011;5167;52.164;10.530;2023-08-06T07:40:20;4.82;;;2.17;;
10244;SDS011;5167;52.164;10.530;2023-08-06T07:42:46;2.58;;;1.80;;
10244;SDS011;5167;52.164;10.530;2023-08-06T07:45:11;3.15;;;2.00;;
10244;SDS011;5167;52.164;10.530;2023-08-06T07:47:37;3.75;;;1.88;;
10244;SDS011;5167;52.164;10.530;2023-08-06T07:50:02;1.70;;;1.58;;
10244;SDS011;5167;52.164;10.530;2023-08-06T07:52:28;2.10;;;1.90;;
10244;SDS011;5167;52.164;10.530;2023-08-06T07:54:54;1.63;;;1.52;;
10244;SDS011;5167;52.164;10.530;2023-08-06T07:57:19;3.25;;;1.80;;
10244;SDS011;5167;52.164;10.530;2023-08-06T07:59:45;2.15;;;1.60;;
10244;SDS011;5167;52.164;10.530;2023-08-06T08:02:10;2.92;;;1.90;;
10244;SDS011;5167;52.164;10.530;2023-08-06T08:04:36;1.90;;;1.80;;
10244;SDS011;5167;52.164;10.530;2023-08-06T08:07:01;1.92;;;1.58;;
10244;SDS011;5167;52.164;10.530;2023-08-06T08:09:27;1.63;;;1.50;;
10244;SDS011;5167;52.164;10.530;2023-08-06T08:11:53;3.17;;;1.60;;
10244;SDS011;5167;52.164;10.530;2023-08-06T08:14:18;2.17;;;1.70;;
10244;SDS011;5167;52.164;10.530;2023-08-06T08:16:44;2.33;;;1.55;;
10244;SDS011;5167;52.164;10.530;2023-08-06T08:19:09;1.58;;;1.48;;
10244;SDS011;5167;52.164;10.530;2023-08-06T08:21:35;2.40;;;1.63;;
10244;SDS011;5167;52.164;10.530;2023-08-06T08:24:00;4.93;;;1.63;;
10244;SDS011;5167;52.164;10.530;2023-08-06T08:26:26;3.30;;;1.88;;
10244;SDS011;5167;52.164;10.530;2023-08-06T08:28:54;2.05;;;1.80;;
10244;SDS011;5167;52.164;10.530;2023-08-06T08:31:21;2.45;;;1.70;;
10244;SDS011;5167;52.164;10.530;2023-08-06T08:33:46;4.72;;;1.85;;
10244;SDS011;5167;52.164;10.530;2023-08-06T08:36:12;2.17;;;2.03;;
10244;SDS011;5167;52.164;10.530;2023-08-06T08:38:37;2.30;;;1.55;;
10244;SDS011;5167;52.164;10.530;2023-08-06T08:41:03;2.45;;;1.98;;
10244;SDS011;5167;52.164;10.530;2023-08-06T08:43:28;1.80;;;1.70;;
10244;SDS011;5167;52.164;10.530;2023-08-06T08:45:55;1.90;;;1.63;;
10244;SDS011;5167;52.164;10.530;2023-08-06T08:48:23;2.55;;;1.73;;
10244;SDS011;5167;52.164;10.530;2023-08-06T08:50:49;6.32;;;2.25;;
10244;SDS011;5167;52.164;10.530;2023-08-06T08:53:16;1.85;;;1.75;;
10244;SDS011;5167;52.164;10.530;2023-08-06T08:55:42;2.60;;;1.60;;
10244;SDS011;5167;52.164;10.530;2023-08-06T08:58:09;2.70;;;1.65;;
10244;SDS011;5167;52.164;10.530;2023-08-06T09:00:35;3.25;;;1.63;;
10244;SDS011;5167;52.164;10.530;2023-08-06T09:03:01;2.05;;;1.85;;
10244;SDS011;5167;52.164;10.530;2023-08-06T09:05:29;1.95;;;1.70;;
10244;SDS011;5167;52.164;10.530;2023-08-06T09:08:07;1.88;;;1.77;;
10244;SDS011;5167;52.164;10.530;2023-08-06T09:10:37;1.60;;;1.50;;
10244;SDS011;5167;52.164;10.530;2023-08-06T09:13:05;1.50;;;1.40;;
10244;SDS011;5167;52.164;10.530;2023-08-06T09:15:31;3.47;;;1.88;;
10244;SDS011;5167;52.164;10.530;2023-08-06T09:17:58;1.30;;;1.20;;
10244;SDS011;5167;52.164;10.530;2023-08-06T09:20:24;2.97;;;1.23;;
10244;SDS011;5167;52.164;10.530;2023-08-06T09:22:49;1.63;;;1.52;;
10244;SDS011;5167;52.164;10.530;2023-08-06T09:25:24;1.05;;;1.05;;
10244;SDS011;5167;52.164;10.530;2023-08-06T09:27:51;4.38;;;1.20;;
10244;SDS011;5167;52.164;10.530;2023-08-06T09:30:30;1.60;;;1.50;;
10244;SDS011;5167;52.164;10.530;2023-08-06T09:32:59;2.78;;;1.38;;
10244;SDS011;5167;52.164;10.530;2023-08-06T09:35:28;1.20;;;1.20;;
10244;SDS011;5167;52.164;10.530;2023-08-06T09:37:55;1.90;;;1.35;;
10244;SDS011;5167;52.164;10.530;2023-08-06T09:42:49;2.03;;;1.90;;
10244;SDS011;5167;52.164;10.530;2023-08-06T09:45:16;2.17;;;1.77;;
10244;SDS011;5167;52.164;10.530;2023-08-06T09:47:41;3.55;;;1.95;;
10244;SDS011;5167;52.164;10.530;2023-08-06T09:50:14;2.40;;;2.20;;
10244;SDS011;5167;52.164;10.530;2023-08-06T09:52:43;3.78;;;1.90;;
10244;SDS011;5167;52.164;10.530;2023-08-06T09:55:13;2.10;;;1.90;;
10244;SDS011;5167;52.164;10.530;2023-08-06T09:57:42;2.15;;;1.95;;
10244;SDS011;5167;52.164;10.530;2023-08-06T10:00:08;1.65;;;1.33;;
10244;SDS011;5167;52.164;10.530;2023-08-06T10:02:37;1.67;;;1.52;;
10244;SDS011;5167;52.164;10.530;2023-08-06T10:05:04;2.42;;;1.65;;
10244;SDS011;5167;52.164;10.530;2023-08-06T10:07:30;2.15;;;1.90;;
10244;SDS011;5167;52.164;10.530;2023-08-06T10:09:56;2.00;;;1.60;;
10244;SDS011;5167;52.164;10.530;2023-08-06T10:12:22;2.53;;;1.80;;
10244;SDS011;5167;52.164;10.530;2023-08-06T10:14:50;4.25;;;1.60;;
10244;SDS011;5167;52.164;10.530;2023-08-06T10:17:17;5.05;;;2.03;;
10244;SDS011;5167;52.164;10.530;2023-08-06T10:19:43;4.35;;;2.10;;
10244;SDS011;5167;52.164;10.530;2023-08-06T10:27:11;2.65;;;2.25;;
10244;SDS011;5167;52.164;10.530;2023-08-06T10:29:36;1.70;;;1.52;;
10244;SDS011;5167;52.164;10.530;2023-08-06T10:32:02;2.10;;;1.88;;
10244;SDS011;5167;52.164;10.530;2023-08-06T10:37:21;2.80;;;2.20;;
10244;SDS011;5167;52.164;10.530;2023-08-06T10:39:49;4.07;;;2.28;;
10244;SDS011;5167;52.164;10.530;2023-08-06T10:42:21;2.67;;;2.05;;
10244;SDS011;5167;52.164;10.530;2023-08-06T10:47:42;2.17;;;1.63;;
10244;SDS011;5167;52.164;10.530;2023-08-06T10:50:11;3.95;;;1.90;;
10244;SDS011;5167;52.164;10.530;2023-08-06T10:52:39;1.98;;;1.48;;
10244;SDS011;5167;52.164;10.530;2023-08-06T10:55:04;3.00;;;1.83;;
10244;SDS011;5167;52.164;10.530;2023-08-06T10:57:30;3.55;;;1.50;;
10244;SDS011;5167;52.164;10.530;2023-08-06T10:59:56;2.33;;;1.70;;
10244;SDS011;5167;52.164;10.530;2023-08-06T11:02:22;2.58;;;2.00;;
10244;SDS011;5167;52.164;10.530;2023-08-06T11:04:48;2.42;;;1.60;;
10244;SDS011;5167;52.164;10.530;2023-08-06T11:07:13;1.95;;;1.63;;
10244;SDS011;5167;52.164;10.530;2023-08-06T11:09:39;2.80;;;1.30;;
10244;SDS011;5167;52.164;10.530;2023-08-06T11:12:11;3.38;;;1.55;;
10244;SDS011;5167;52.164;10.530;2023-08-06T11:14:37;1.80;;;1.30;;
10244;SDS011;5167;52.164;10.530;2023-08-06T11:17:03;2.13;;;1.42;;
10244;SDS011;5167;52.164;10.530;2023-08-06T11:19:30;2.75;;;1.92;;
10244;SDS011;5167;52.164;10.530;2023-08-06T11:21:56;2.03;;;1.63;;
10244;SDS011;5167;52.164;10.530;2023-08-06T11:24:23;2.95;;;1.60;;
10244;SDS011;5167;52.164;10.530;2023-08-06T11:26:49;2.60;;;2.00;;
10244;SDS011;5167;52.164;10.530;2023-08-06T11:29:15;1.52;;;1.42;;
10244;SDS011;5167;52.164;10.530;2023-08-06T11:31:41;1.25;;;1.17;;
10244;SDS011;5167;52.164;10.530;2023-08-06T11:34:06;1.63;;;1.52;;
10244;SDS011;5167;52.164;10.530;2023-08-06T11:36:32;1.45;;;1.27;;
10244;SDS011;5167;52.164;10.530;2023-08-06T11:38:59;1.60;;;1.50;;
10244;SDS011;5167;52.164;10.530;2023-08-06T11:41:27;2.17;;;1.63;;
10244;SDS011;5167;52.164;10.530;2023-08-06T11:43:54;1.83;;;1.52;;
10244;SDS011;5167;52.164;10.530;2023-08-06T11:46:19;1.85;;;1.48;;
10244;SDS011;5167;52.164;10.530;2023-08-06T11:48:52;1.30;;;1.20;;
10244;SDS011;5167;52.164;10.530;2023-08-06T11:51:18;1.65;;;1.50;;
10244;SDS011;5167;52.164;10.530;2023-08-06T11:53:50;4.00;;;1.70;;
10244;SDS011;5167;52.164;10.530;2023-08-06T11:56:16;2.40;;;1.52;;
10244;SDS011;5167;52.164;10.530;2023-08-06T11:58:42;2.25;;;1.30;;
10244;SDS011;5167;52.164;10.530;2023-08-06T12:01:08;1.60;;;1.50;;
10244;SDS011;5167;52.164;10.530;2023-08-06T12:03:38;1.52;;;1.15;;
10244;SDS011;5167;52.164;10.530;2023-08-06T12:06:07;1.27;;;1.17;;
10244;SDS011;5167;52.164;10.530;2023-08-06T12:08:32;2.45;;;1.30;;
10244;SDS011;5167;52.164;10.530;2023-08-06T12:10:58;1.50;;;1.40;;
10244;SDS011;5167;52.164;10.530;2023-08-06T12:13:24;5.07;;;1.52;;
10244;SDS011;5167;52.164;10.530;2023-08-06T12:15:49;1.58;;;1.30;;
10244;SDS011;5167;52.164;10.530;2023-08-06T12:18:17;5.10;;;1.92;;
10244;SDS011;5167;52.164;10.530;2023-08-06T12:20:43;1.77;;;1.52;;
10244;SDS011;5167;52.164;10.530;2023-08-06T12:23:09;2.25;;;1.35;;
10244;SDS011;5167;52.164;10.530;2023-08-06T12:25:35;1.40;;;1.30;;
10244;SDS011;5167;52.164;10.530;2023-08-06T12:28:00;1.70;;;1.60;;
10244;SDS011;5167;52.164;10.530;2023-08-06T12:30:26;1.50;;;1.40;;
10244;SDS011;5167;52.164;10.530;2023-08-06T12:32:51;2.70;;;1.63;;
10244;SDS011;5167;52.164;10.530;2023-08-06T12:35:17;2.83;;;1.60;;
10244;SDS011;5167;52.164;10.530;2023-08-06T12:37:42;1.58;;;1.35;;
10244;SDS011;5167;52.164;10.530;2023-08-06T12:40:09;1.50;;;1.40;;
10244;SDS011;5167;52.164;10.530;2023-08-06T12:42:35;1.50;;;1.40;;
10244;SDS011;5167;52.164;10.530;2023-08-06T12:45:00;1.60;;;1.50;;
10244;SDS011;5167;52.164;10.530;2023-08-06T12:47:26;1.38;;;1.27;;
10244;SDS011;5167;52.164;10.530;2023-08-06T12:49:52;1.83;;;1.40;;
10244;SDS011;5167;52.164;10.530;2023-08-06T12:52:17;2.17;;;1.30;;
10244;SDS011;5167;52.164;10.530;2023-08-06T12:54:44;1.52;;;1.42;;
10244;SDS011;5167;52.164;10.530;2023-08-06T12:57:11;2.42;;;1.42;;
10244;SDS011;5167;52.164;10.530;2023-08-06T12:59:36;2.33;;;1.45;;
10244;SDS011;5167;52.164;10.530;2023-08-06T13:02:02;1.30;;;1.20;;
10244;SDS011;5167;52.164;10.530;2023-08-06T13:04:28;1.52;;;1.42;;
10244;SDS011;5167;52.164;10.530;2023-08-06T13:06:53;4.53;;;1.70;;
10244;SDS011;5167;52.164;10.530;2023-08-06T13:09:19;1.50;;;1.30;;
10244;SDS011;5167;52.164;10.530;2023-08-06T13:11:44;1.60;;;1.50;;
10244;SDS011;5167;52.164;10.530;2023-08-06T13:14:15;1.85;;;1.40;;
10244;SDS011;5167;52.164;10.530;2023-08-06T13:16:41;1.60;;;1.50;;
10244;SDS011;5167;52.164;10.530;2023-08-06T13:19:08;1.77;;;1.65;;
10244;SDS011;5167;52.164;10.530;2023-08-06T13:24:05;1.52;;;1.30;;
10244;SDS011;5167;52.164;10.530;2023-08-06T13:26:31;2.67;;;1.45;;
10244;SDS011;5167;52.164;10.530;2023-08-06T13:28:57;1.40;;;1.30;;
10244;SDS011;5167;52.164;10.530;2023-08-06T13:31:23;1.38;;;1.27;;
10244;SDS011;5167;52.164;10.530;2023-08-06T13:33:49;1.95;;;1.38;;
10244;SDS011;5167;52.164;10.530;2023-08-06T13:36:15;1.33;;;1.23;;
10244;SDS011;5167;52.164;10.530;2023-08-06T13:38:41;1.80;;;1.60;;
10244;SDS011;5167;52.164;10.530;2023-08-06T13:41:07;3.05;;;2.45;;
10244;SDS011;5167;52.164;10.530;2023-08-06T13:43:32;1.80;;;1.48;;
10244;SDS011;5167;52.164;10.530;2023-08-06T13:45:58;1.35;;;1.25;;
10244;SDS011;5167;52.164;10.530;2023-08-06T13:48:24;2.08;;;1.77;;
10244;SDS011;5167;52.164;10.530;2023-08-06T13:50:49;1.30;;;1.20;;
10244;SDS011;5167;52.164;10.530;2023-08-06T13:53:15;1.95;;;1.85;;
10244;SDS011;5167;52.164;10.530;2023-08-06T13:55:40;1.75;;;1.38;;
10244;SDS011;5167;52.164;10.530;2023-08-06T13:58:06;1.95;;;1.33;;
10244;SDS011;5167;52.164;10.530;2023-08-06T14:00:31;1.40;;;1.30;;
10244;SDS011;5167;52.164;10.530;2023-08-06T14:02:57;1.25;;;1.15;;
10244;SDS011;5167;52.164;10.530;2023-08-06T14:05:22;1.63;;;1.50;;
10244;SDS011;5167;52.164;10.530;2023-08-06T14:07:48;1.40;;;1.20;;
10244;SDS011;5167;52.164;10.530;2023-08-06T14:10:13;1.20;;;1.10;;
10244;SDS011;5167;52.164;10.530;2023-08-06T14:12:39;1.10;;;1.10;;
10244;SDS011;5167;52.164;10.530;2023-08-06T14:15:05;1.30;;;1.20;;
10244;SDS011;5167;52.164;10.530;2023-08-06T14:17:31;1.73;;;1.50;;
10244;SDS011;5167;52.164;10.530;2023-08-06T14:19:56;1.40;;;1.30;;
10244;SDS011;5167;52.164;10.530;2023-08-06T14:22:22;1.50;;;1.30;;
10244;SDS011;5167;52.164;10.530;2023-08-06T14:24:48;2.85;;;1.27;;
10244;SDS011;5167;52.164;10.530;2023-08-06T14:27:13;1.50;;;1.20;;
10244;SDS011;5167;52.164;10.530;2023-08-06T14:29:39;1.40;;;1.30;;
10244;SDS011;5167;52.164;10.530;2023-08-06T14:32:05;1.20;;;1.10;;
10244;SDS011;5167;52.164;10.530;2023-08-06T14:34:31;1.20;;;1.10;;
10244;SDS011;5167;52.164;10.530;2023-08-06T14:36:56;3.15;;;1.58;;
10244;SDS011;5167;52.164;10.530;2023-08-06T14:39:22;1.50;;;1.40;;
10244;SDS011;5167;52.164;10.530;2023-08-06T14:41:47;1.48;;;1.30;;
10244;SDS011;5167;52.164;10.530;2023-08-06T14:44:13;1.33;;;1.08;;
10244;SDS011;5167;52.164;10.530;2023-08-06T14:46:39;1.25;;;1.10;;
10244;SDS011;5167;52.164;10.530;2023-08-06T14:49:04;1.38;;;1.27;;
10244;SDS011;5167;52.164;10.530;2023-08-06T14:51:30;1.08;;;1.00;;
10244;SDS011;5167;52.164;10.530;2023-08-06T14:53:55;1.40;;;1.30;;
10244;SDS011;5167;52.164;10.530;2023-08-06T14:56:21;2.13;;;1.67;;
10244;SDS011;5167;52.164;10.530;2023-08-06T14:58:48;2.42;;;1.33;;
10244;SDS011;5167;52.164;10.530;2023-08-06T15:01:13;1.80;;;1.70;;